createdAt,value
2019-05-03T00:02:28.296Z,3.50
2019-05-03T00:05:26.959Z,3.73
2019-05-03T00:08:02.750Z,3.57
2019-05-03T00:10:32.015Z,3.40
2019-05-03T00:13:01.912Z,3.47
2019-05-03T00:15:38.424Z,3.53
2019-05-03T00:18:07.588Z,2.97
2019-05-03T00:20:36.679Z,4.17
2019-05-03T00:23:06.432Z,3.00
2019-05-03T00:25:35.658Z,3.97
2019-05-03T00:28:04.964Z,3.90
2019-05-03T00:30:34.224Z,3.27
2019-05-03T00:33:03.498Z,4.20
2019-05-03T00:35:54.732Z,3.83
2019-05-03T00:38:24.022Z,3.70
2019-05-03T00:40:53.333Z,4.80
2019-05-03T00:43:22.597Z,3.73
2019-05-03T00:45:51.884Z,5.10
2019-05-03T00:48:21.934Z,3.90
2019-05-03T00:50:52.834Z,3.73
2019-05-03T00:53:22.377Z,3.90
2019-05-03T00:55:52.442Z,4.00
2019-05-03T00:58:22.449Z,4.47
2019-05-03T01:00:52.660Z,4.37
2019-05-03T01:03:22.344Z,3.73
2019-05-03T01:05:52.883Z,4.50
2019-05-03T01:08:22.452Z,3.80
2019-05-03T01:10:51.792Z,4.17
2019-05-03T01:13:21.928Z,4.40
2019-05-03T01:15:58.469Z,3.30
2019-05-03T01:18:27.696Z,3.97
2019-05-03T01:20:56.840Z,3.70
2019-05-03T01:23:26.057Z,3.80
2019-05-03T01:25:55.342Z,4.10
2019-05-03T01:28:24.463Z,5.40
2019-05-03T01:30:53.639Z,4.90
2019-05-03T01:33:22.962Z,3.83
2019-05-03T01:35:52.176Z,3.83
2019-05-03T01:38:22.643Z,4.27
2019-05-03T01:40:52.259Z,4.27
2019-05-03T01:43:22.196Z,4.00
2019-05-03T01:45:51.950Z,4.50
2019-05-03T01:48:28.727Z,3.73
2019-05-03T01:51:32.732Z,4.13
2019-05-03T01:54:02.007Z,4.63
2019-05-03T01:56:31.636Z,4.90
2019-05-03T01:59:01.855Z,4.70
2019-05-03T02:01:37.835Z,3.87
2019-05-03T02:04:26.878Z,3.73
2019-05-03T02:06:56.031Z,4.60
2019-05-03T02:09:25.215Z,4.00
2019-05-03T02:11:54.463Z,4.50
2019-05-03T02:14:23.685Z,4.23
2019-05-03T02:16:52.901Z,3.90
2019-05-03T02:19:22.701Z,4.53
2019-05-03T02:21:52.395Z,4.10
2019-05-03T02:24:22.086Z,4.10
2019-05-03T02:26:52.941Z,3.60
2019-05-03T02:29:22.208Z,4.90
2019-05-03T02:31:53.469Z,3.90
2019-05-03T02:34:23.960Z,4.87
2019-05-03T02:36:53.918Z,4.47
2019-05-03T02:39:23.819Z,3.47
2019-05-03T02:41:59.719Z,3.90
2019-05-03T02:44:26.603Z,5.73
2019-05-03T02:47:15.757Z,4.13
2019-05-03T02:49:47.367Z,4.13
2019-05-03T02:52:36.736Z,4.07
2019-05-03T02:55:10.139Z,4.40
2019-05-03T02:57:39.422Z,4.20
2019-05-03T03:00:11.149Z,3.70
2019-05-03T03:02:40.941Z,4.23
2019-05-03T03:05:11.273Z,3.63
2019-05-03T03:07:45.951Z,4.20
2019-05-03T03:10:16.378Z,3.80
2019-05-03T03:12:47.311Z,3.77
2019-05-03T03:15:16.636Z,4.03
2019-05-03T03:17:47.196Z,4.50
2019-05-03T03:20:16.423Z,3.40
2019-05-03T03:22:46.789Z,5.47
2019-05-03T03:25:25.592Z,4.30
2019-05-03T03:27:58.464Z,3.70
2019-05-03T03:31:17.677Z,4.27
2019-05-03T03:33:47.512Z,3.57
2019-05-03T03:36:50.301Z,4.00
2019-05-03T03:38:47.494Z,3.93
2019-05-03T03:41:18.450Z,3.93
2019-05-03T03:43:50.838Z,4.37
2019-05-03T03:46:25.168Z,3.30
2019-05-03T03:48:57.336Z,3.57
2019-05-03T03:51:29.542Z,2.77
2019-05-03T03:54:01.955Z,2.80
2019-05-03T03:56:35.603Z,2.60
2019-05-03T03:59:05.900Z,3.00
2019-05-03T04:01:35.066Z,3.70
2019-05-03T04:04:05.584Z,3.63
2019-05-03T04:06:41.234Z,2.80
2019-05-03T04:09:11.397Z,2.57
2019-05-03T04:11:41.240Z,2.37
2019-05-03T04:14:16.162Z,2.30
2019-05-03T04:16:57.137Z,2.73
2019-05-03T04:19:30.230Z,2.53
2019-05-03T04:21:59.555Z,2.67
2019-05-03T04:24:30.930Z,2.60
2019-05-03T04:27:18.743Z,2.67
2019-05-03T04:29:38.609Z,3.10
2019-05-03T04:32:08.741Z,3.77
2019-05-03T04:34:37.992Z,2.37
2019-05-03T04:37:07.303Z,2.60
2019-05-03T04:39:36.512Z,2.40
2019-05-03T04:42:06.673Z,2.40
2019-05-03T04:44:36.630Z,2.50
2019-05-03T04:47:06.943Z,2.27
2019-05-03T04:49:36.583Z,2.30
2019-05-03T04:52:06.130Z,2.47
2019-05-03T04:55:00.637Z,2.03
2019-05-03T04:57:40.009Z,2.27
2019-05-03T05:00:00.647Z,2.20
2019-05-03T05:02:30.083Z,2.60
2019-05-03T05:04:59.590Z,2.50
2019-05-03T05:07:28.785Z,2.47
2019-05-03T05:09:57.998Z,2.90
2019-05-03T05:12:27.190Z,2.53
2019-05-03T05:14:56.709Z,2.73
2019-05-03T05:17:45.958Z,3.27
2019-05-03T05:20:40.924Z,2.50
2019-05-03T05:23:10.499Z,2.60
2019-05-03T05:25:45.034Z,2.47
2019-05-03T05:28:39.804Z,3.70
2019-05-03T05:31:09.477Z,2.93
2019-05-03T05:33:38.696Z,3.10
2019-05-03T05:36:07.944Z,3.97
2019-05-03T05:38:37.130Z,1.97
2019-05-03T05:41:06.369Z,2.40
2019-05-03T05:43:35.793Z,2.10
2019-05-03T05:46:06.074Z,2.07
2019-05-03T05:48:40.530Z,2.37
2019-05-03T05:51:09.775Z,2.30
2019-05-03T05:53:38.978Z,2.30
2019-05-03T05:56:19.810Z,2.03
2019-05-03T05:59:08.101Z,2.50
2019-05-03T06:01:45.578Z,2.33
2019-05-03T06:04:15.408Z,1.80
2019-05-03T06:07:04.622Z,1.93
2019-05-03T06:09:56.806Z,2.53
2019-05-03T06:12:32.452Z,2.07
2019-05-03T06:15:06.286Z,2.50
2019-05-03T06:17:49.506Z,1.73
2019-05-03T06:20:34.972Z,1.70
2019-05-03T06:23:22.196Z,1.67
2019-05-03T06:25:51.307Z,1.70
2019-05-03T06:28:27.649Z,1.93
2019-05-03T06:31:14.766Z,2.40
2019-05-03T06:33:45.045Z,2.20
2019-05-03T06:36:15.271Z,1.90
2019-05-03T06:38:44.808Z,1.70
2019-05-03T06:41:15.090Z,1.60
2019-05-03T06:43:48.384Z,1.90
2019-05-03T06:46:18.149Z,1.70
2019-05-03T06:48:46.142Z,1.90
2019-05-03T06:51:19.867Z,1.20
2019-05-03T06:53:49.604Z,1.50
2019-05-03T06:56:19.260Z,1.53
2019-05-03T06:58:48.036Z,1.83
2019-05-03T07:01:25.145Z,1.67
2019-05-03T07:04:16.430Z,1.80
2019-05-03T07:07:07.564Z,1.57
2019-05-03T07:09:44.571Z,1.53
2019-05-03T07:12:14.852Z,1.60
2019-05-03T07:14:45.012Z,2.23
2019-05-03T07:17:15.104Z,1.13
2019-05-03T07:19:45.915Z,1.70
2019-05-03T07:22:15.294Z,1.83
2019-05-03T07:24:45.507Z,2.90
2019-05-03T07:27:15.888Z,1.50
2019-05-03T07:29:45.640Z,1.40
2019-05-03T07:32:15.586Z,1.93
2019-05-03T07:34:45.312Z,1.30
2019-05-03T07:37:15.371Z,1.60
2019-05-03T07:39:45.278Z,1.73
2019-05-03T07:42:15.667Z,1.63
2019-05-03T07:44:45.144Z,1.77
2019-05-03T07:47:14.834Z,1.33
2019-05-03T07:49:44.747Z,1.77
2019-05-03T07:52:14.739Z,1.70
2019-05-03T07:54:45.114Z,1.70
2019-05-03T07:57:29.229Z,1.50
2019-05-03T07:59:58.430Z,1.90
2019-05-03T08:02:27.776Z,1.97
2019-05-03T08:04:57.025Z,1.30
2019-05-03T08:07:26.315Z,1.73
2019-05-03T08:09:55.681Z,1.60
2019-05-03T08:12:24.985Z,1.73
2019-05-03T08:14:55.189Z,1.43
2019-05-03T08:17:25.507Z,1.50
2019-05-03T08:19:55.497Z,1.87
2019-05-03T08:22:25.527Z,1.70
2019-05-03T08:24:55.657Z,1.70
2019-05-03T08:27:25.359Z,1.43
2019-05-03T08:29:55.789Z,1.57
2019-05-03T08:32:44.510Z,1.90
2019-05-03T08:35:31.953Z,1.50
2019-05-03T08:38:02.006Z,1.33
2019-05-03T08:40:35.247Z,1.53
2019-05-03T08:43:05.194Z,1.60
2019-05-03T08:45:34.988Z,1.47
2019-05-03T08:48:05.507Z,1.63
2019-05-03T08:53:56.799Z,1.63
2019-05-03T08:56:26.027Z,1.87
2019-05-03T08:58:55.524Z,1.70
2019-05-03T09:01:25.256Z,1.77
2019-05-03T09:03:55.795Z,1.83
2019-05-03T09:06:25.807Z,1.40
2019-05-03T09:08:57.232Z,1.77
2019-05-03T09:11:34.029Z,1.73
2019-05-03T09:13:59.643Z,2.20
2019-05-03T09:16:30.285Z,1.63
2019-05-03T09:18:59.533Z,1.43
2019-05-03T09:21:28.684Z,1.90
2019-05-03T09:23:58.081Z,2.20
2019-05-03T09:26:29.510Z,2.00
2019-05-03T09:29:00.873Z,1.60
2019-05-03T09:31:30.111Z,1.20
2019-05-03T09:36:39.651Z,1.70
2019-05-03T09:39:09.028Z,2.20
2019-05-03T09:41:45.108Z,1.63
2019-05-03T09:44:17.708Z,1.80
2019-05-03T09:46:46.832Z,1.87
2019-05-03T09:49:16.881Z,1.60
2019-05-03T09:51:46.145Z,1.57
2019-05-03T09:54:25.511Z,1.87
2019-05-03T09:57:01.409Z,2.00
2019-05-03T09:59:30.615Z,1.53
2019-05-03T10:02:01.476Z,1.60
2019-05-03T10:04:31.754Z,1.90
2019-05-03T10:07:00.932Z,1.50
2019-05-03T10:09:30.074Z,1.50
2019-05-03T10:12:00.407Z,2.07
2019-05-03T10:14:29.544Z,1.80
2019-05-03T10:17:28.503Z,1.30
2019-05-03T10:19:57.745Z,1.57
2019-05-03T10:22:31.423Z,1.57
2019-05-03T10:25:00.393Z,1.83
2019-05-03T10:27:32.357Z,1.83
2019-05-03T10:30:10.559Z,1.60
2019-05-03T10:32:38.557Z,1.93
2019-05-03T10:35:09.616Z,1.60
2019-05-03T10:37:38.800Z,2.10
2019-05-03T10:40:10.044Z,1.57
2019-05-03T10:42:39.257Z,1.97
2019-05-03T10:45:09.841Z,1.90
2019-05-03T10:47:39.132Z,1.70
2019-05-03T10:50:09.706Z,2.37
2019-05-03T10:52:44.622Z,1.93
2019-05-03T10:55:15.945Z,1.73
2019-05-03T10:57:48.032Z,1.90
2019-05-03T11:00:42.590Z,1.50
2019-05-03T11:02:56.770Z,2.00
2019-05-03T11:05:27.393Z,1.93
2019-05-03T11:07:56.631Z,1.67
2019-05-03T11:10:25.867Z,2.30
2019-05-03T11:12:58.112Z,1.80
2019-05-03T11:15:27.302Z,1.50
2019-05-03T11:17:56.443Z,1.53
2019-05-03T11:20:36.197Z,1.80
2019-05-03T11:23:07.812Z,1.87
2019-05-03T11:25:37.827Z,2.33
2019-05-03T11:28:21.782Z,1.80
2019-05-03T11:30:56.468Z,1.47
2019-05-03T11:33:37.576Z,1.80
2019-05-03T11:36:18.198Z,1.90
2019-05-03T11:38:48.618Z,2.00
2019-05-03T11:41:29.521Z,2.60
2019-05-03T11:43:48.862Z,1.77
2019-05-03T11:46:18.053Z,2.00
2019-05-03T11:48:48.446Z,1.80
2019-05-03T11:51:17.593Z,2.03
2019-05-03T11:53:46.812Z,2.30
2019-05-03T11:56:16.003Z,2.00
2019-05-03T11:58:45.677Z,2.00
2019-05-03T12:01:35.902Z,1.73
2019-05-03T12:04:09.411Z,2.30
2019-05-03T12:06:40.885Z,1.80
2019-05-03T12:09:12.692Z,1.80
2019-05-03T12:11:45.522Z,2.07
2019-05-03T12:14:15.504Z,1.80
2019-05-03T12:17:14.270Z,1.73
2019-05-03T12:19:29.776Z,2.00
2019-05-03T12:21:54.281Z,1.97
2019-05-03T12:24:26.428Z,1.87
2019-05-03T12:26:55.866Z,1.63
2019-05-03T12:29:25.540Z,1.80
2019-05-03T12:31:54.903Z,2.30
2019-05-03T12:34:25.629Z,1.77
2019-05-03T12:36:55.215Z,1.83
2019-05-03T12:39:30.042Z,1.63
2019-05-03T12:41:55.414Z,1.60
2019-05-03T12:44:24.800Z,1.90
2019-05-03T12:46:53.968Z,1.90
2019-05-03T12:49:24.921Z,1.90
2019-05-03T12:51:55.697Z,1.83
2019-05-03T12:54:24.862Z,1.60
2019-05-03T12:56:56.073Z,1.73
2019-05-03T12:59:44.792Z,1.60
2019-05-03T13:02:19.056Z,1.53
2019-05-03T13:04:51.882Z,2.07
2019-05-03T13:07:28.451Z,1.93
2019-05-03T13:09:57.651Z,1.70
2019-05-03T13:12:28.620Z,2.10
2019-05-03T13:15:00.014Z,2.93
2019-05-03T13:17:36.123Z,1.83
2019-05-03T13:20:09.151Z,2.93
2019-05-03T13:22:38.290Z,2.30
2019-05-03T13:25:09.091Z,2.03
2019-05-03T13:27:38.417Z,1.90
2019-05-03T13:30:08.829Z,1.97
2019-05-03T13:32:37.977Z,2.00
2019-05-03T13:35:07.836Z,1.60
2019-05-03T13:37:40.410Z,1.70
2019-05-03T13:40:36.018Z,1.80
2019-05-03T13:51:25.407Z,1.70
2019-05-03T13:53:42.053Z,2.63
2019-05-03T13:56:11.242Z,1.73
2019-05-03T13:58:40.511Z,1.90
2019-05-03T14:01:09.673Z,1.90
2019-05-03T14:03:39.350Z,1.80
2019-05-03T14:06:09.456Z,1.73
2019-05-03T14:08:38.824Z,1.50
2019-05-03T14:11:08.036Z,2.07
2019-05-03T14:13:38.501Z,2.23
2019-05-03T14:16:07.858Z,2.13
2019-05-03T14:18:37.083Z,2.13
2019-05-03T14:21:20.563Z,2.57
2019-05-03T14:24:11.342Z,2.23
2019-05-03T14:26:44.758Z,2.23
2019-05-03T14:29:14.943Z,2.47
2019-05-03T14:31:45.406Z,2.03
2019-05-03T14:34:17.503Z,2.03
2019-05-03T14:36:46.983Z,1.60
2019-05-03T14:39:16.188Z,2.03
2019-05-03T14:41:46.864Z,1.77
2019-05-03T14:44:18.392Z,1.90
2019-05-03T14:46:48.302Z,2.10
2019-05-03T14:49:20.452Z,2.00
2019-05-03T14:51:49.720Z,2.87
2019-05-03T14:54:24.916Z,1.90
2019-05-03T14:57:01.092Z,2.37
2019-05-03T14:59:50.957Z,2.10
2019-05-03T15:02:50.937Z,2.00
2019-05-03T15:05:21.934Z,1.83
2019-05-03T15:07:51.035Z,2.13
2019-05-03T15:10:23.262Z,2.00
2019-05-03T15:12:52.456Z,1.87
2019-05-03T15:15:21.648Z,2.30
2019-05-03T15:17:50.756Z,4.10
2019-05-03T15:20:45.186Z,2.13
2019-05-03T15:23:14.719Z,2.63
2019-05-03T15:25:45.229Z,2.60
2019-05-03T15:28:15.418Z,2.40
2019-05-03T15:30:44.598Z,2.60
2019-05-03T15:33:15.152Z,2.07
2019-05-03T15:35:46.582Z,2.07
2019-05-03T15:38:15.266Z,1.77
2019-05-03T15:40:46.374Z,1.70
2019-05-03T15:43:21.459Z,1.67
2019-05-03T15:46:16.123Z,2.07
2019-05-03T15:48:48.590Z,1.83
2019-05-03T15:51:17.716Z,1.90
2019-05-03T15:53:46.894Z,1.77
2019-05-03T15:56:15.980Z,2.10
2019-05-03T15:58:46.930Z,2.10
2019-05-03T16:01:16.170Z,2.00
2019-05-03T16:03:45.297Z,2.47
2019-05-03T16:06:15.562Z,2.10
2019-05-03T16:08:44.991Z,2.03
2019-05-03T16:11:14.866Z,2.30
2019-05-03T16:13:44.853Z,2.43
2019-05-03T16:16:15.235Z,2.50
2019-05-03T16:18:44.986Z,2.17
2019-05-03T16:21:14.831Z,2.13
2019-05-03T16:23:46.722Z,2.33
2019-05-03T16:26:15.092Z,1.90
2019-05-03T16:28:49.796Z,2.60
2019-05-03T16:31:21.179Z,2.23
2019-05-03T16:33:50.356Z,1.70
2019-05-03T16:36:19.446Z,2.00
2019-05-03T16:38:48.628Z,2.27
2019-05-03T16:41:18.614Z,2.47
2019-05-03T16:43:47.859Z,2.53
2019-05-03T16:46:17.026Z,2.00
2019-05-03T16:48:46.157Z,2.07
2019-05-03T16:51:17.293Z,2.50
2019-05-03T16:53:46.230Z,2.13
2019-05-03T16:56:17.177Z,2.50
2019-05-03T16:58:46.303Z,3.17
2019-05-03T17:01:17.795Z,2.23
2019-05-03T17:03:51.247Z,2.00
2019-05-03T17:06:42.207Z,2.00
2019-05-03T17:09:19.962Z,2.13
2019-05-03T17:12:11.214Z,2.43
2019-05-03T17:14:40.420Z,1.97
2019-05-03T17:17:25.122Z,2.07
2019-05-03T17:19:55.140Z,2.40
2019-05-03T17:22:25.221Z,2.07
2019-05-03T17:24:55.154Z,1.67
2019-05-03T17:27:29.681Z,1.87
2019-05-03T17:29:59.101Z,1.47
2019-05-03T17:32:31.256Z,1.80
2019-05-03T17:35:31.085Z,2.13
2019-05-03T17:38:00.339Z,1.80
2019-05-03T17:40:41.875Z,2.17
2019-05-03T17:43:29.023Z,1.70
2019-05-03T17:45:59.547Z,2.10
2019-05-03T17:48:29.769Z,2.20
2019-05-03T17:50:59.102Z,1.70
2019-05-03T17:53:47.363Z,2.27
2019-05-03T17:56:35.080Z,1.80
2019-05-03T17:59:12.545Z,2.10
2019-05-03T18:02:04.867Z,2.00
2019-05-03T18:04:59.309Z,2.00
2019-05-03T18:07:42.631Z,2.33
2019-05-03T18:10:12.093Z,2.87
2019-05-03T18:12:41.321Z,2.20
2019-05-03T18:15:12.275Z,1.83
2019-05-03T18:17:44.490Z,2.00
2019-05-03T18:20:15.060Z,1.90
2019-05-03T18:22:44.848Z,1.80
2019-05-03T18:25:14.283Z,3.10
2019-05-03T18:27:44.607Z,2.10
2019-05-03T18:30:14.702Z,2.67
2019-05-03T18:32:46.170Z,3.40
2019-05-03T18:35:15.656Z,2.60
2019-05-03T18:37:47.303Z,2.40
2019-05-03T18:40:16.475Z,2.80
2019-05-03T18:42:51.026Z,3.07
2019-05-03T18:45:25.732Z,2.40
2019-05-03T18:47:54.895Z,3.00
2019-05-03T18:50:23.997Z,3.33
2019-05-03T18:52:53.142Z,3.07
2019-05-03T18:55:22.268Z,3.00
2019-05-03T18:57:51.377Z,3.03
2019-05-03T19:00:21.714Z,2.80
2019-05-03T19:02:51.057Z,3.70
2019-05-03T19:05:22.022Z,2.73
2019-05-03T19:08:15.203Z,2.90
2019-05-03T19:11:06.245Z,2.80
2019-05-03T19:13:41.504Z,3.20
2019-05-03T19:16:25.506Z,3.30
2019-05-03T19:18:55.059Z,2.83
2019-05-03T19:21:24.696Z,3.30
2019-05-03T19:23:53.902Z,3.33
2019-05-03T19:26:24.814Z,3.43
2019-05-03T19:28:54.972Z,3.50
2019-05-03T19:31:25.323Z,3.20
2019-05-03T19:33:56.161Z,3.83
2019-05-03T19:36:25.288Z,3.70
2019-05-03T19:38:54.689Z,3.83
2019-05-03T19:41:25.198Z,3.43
2019-05-03T19:43:55.043Z,3.03
2019-05-03T19:46:24.945Z,3.33
2019-05-03T19:48:54.709Z,2.73
2019-05-03T19:54:17.144Z,3.47
2019-05-03T19:56:46.925Z,4.33
2019-05-03T19:59:35.464Z,3.90
2019-05-03T20:02:29.711Z,3.30
2019-05-03T20:05:17.931Z,2.87
2019-05-03T20:08:09.811Z,3.70
2019-05-03T20:10:38.974Z,3.00
2019-05-03T20:13:08.084Z,2.57
2019-05-03T20:15:37.299Z,3.30
2019-05-03T20:18:06.542Z,3.10
2019-05-03T20:20:35.730Z,3.03
2019-05-03T20:23:05.337Z,3.03
2019-05-03T20:25:35.205Z,3.00
2019-05-03T20:28:05.083Z,3.40
2019-05-03T20:30:34.833Z,2.73
2019-05-03T20:33:04.716Z,2.77
2019-05-03T20:35:35.636Z,2.70
2019-05-03T20:38:04.818Z,3.47
2019-05-03T20:40:35.102Z,3.57
2019-05-03T20:43:26.143Z,2.60
2019-05-03T20:46:20.484Z,2.70
2019-05-03T20:48:51.951Z,4.00
2019-05-03T20:51:21.093Z,2.93
2019-05-03T20:53:50.258Z,2.83
2019-05-03T20:56:19.370Z,3.17
2019-05-03T20:58:48.534Z,3.20
2019-05-03T21:01:17.750Z,3.10
2019-05-03T21:03:46.966Z,3.17
2019-05-03T21:06:16.099Z,3.60
2019-05-03T21:08:52.973Z,3.00
2019-05-03T21:11:16.156Z,2.87
2019-05-03T21:13:45.297Z,3.30
2019-05-03T21:16:36.045Z,3.30
2019-05-03T21:19:17.836Z,3.20
2019-05-03T21:21:54.967Z,3.03
2019-05-03T21:24:48.610Z,2.53
2019-05-03T21:27:17.738Z,2.77
2019-05-03T21:29:55.231Z,2.63
2019-05-03T21:32:25.031Z,2.90
2019-05-03T21:34:55.703Z,2.43
2019-05-03T21:37:25.615Z,3.10
2019-05-03T21:39:54.963Z,4.30
2019-05-03T21:42:24.094Z,2.90
2019-05-03T21:44:55.364Z,3.20
2019-05-03T21:47:49.014Z,4.03
2019-05-03T21:50:19.887Z,3.50
2019-05-03T22:11:12.113Z,2.50
2019-05-03T22:14:45.471Z,2.83
2019-05-03T22:17:34.425Z,3.10
2019-05-03T22:20:12.043Z,2.77
2019-05-03T22:22:47.901Z,2.80
2019-05-03T22:25:19.923Z,2.90
2019-05-03T22:27:49.119Z,3.43
2019-05-03T22:30:20.458Z,2.63
2019-05-03T22:32:49.661Z,2.73
2019-05-03T22:35:18.871Z,2.90
2019-05-03T22:37:49.909Z,3.20
2019-05-03T22:40:19.013Z,3.00
2019-05-03T22:42:48.132Z,2.60
2019-05-03T22:45:19.227Z,2.87
2019-05-03T22:47:48.363Z,2.93
2019-05-03T22:50:17.505Z,3.43
2019-05-03T22:52:46.655Z,3.73
2019-05-03T22:55:15.781Z,2.83
2019-05-03T22:57:44.888Z,2.87
2019-05-03T23:00:14.751Z,2.13
2019-05-03T23:02:45.536Z,2.77
2019-05-03T23:05:14.839Z,2.57
2019-05-03T23:07:44.280Z,2.27
2019-05-03T23:10:17.266Z,2.50
2019-05-03T23:12:45.880Z,1.93
2019-05-03T23:15:15.363Z,2.40
2019-05-03T23:17:45.133Z,2.60
2019-05-03T23:20:25.520Z,2.87
2019-05-03T23:22:54.867Z,2.67
2019-05-03T23:25:24.997Z,3.10
2019-05-03T23:27:55.108Z,3.20
2019-05-03T23:30:24.966Z,3.27
2019-05-03T23:32:54.832Z,2.47
2019-05-03T23:35:24.733Z,2.60
2019-05-03T23:37:54.399Z,2.60
2019-05-03T23:40:25.403Z,2.50
2019-05-03T23:42:54.824Z,2.60
2019-05-03T23:45:25.537Z,2.87
2019-05-03T23:47:54.860Z,2.53
2019-05-03T23:50:24.900Z,2.60
2019-05-03T23:52:54.624Z,2.37
2019-05-03T23:55:41.952Z,2.33
2019-05-03T23:58:11.048Z,2.80
